createdAt,value
2018-08-07T00:01:44.005Z,18.00
2018-08-07T00:04:12.570Z,18.00
2018-08-07T00:06:41.275Z,18.10
2018-08-07T00:09:11.353Z,17.90
2018-08-07T00:11:40.045Z,18.10
2018-08-07T00:14:08.849Z,18.10
2018-08-07T00:16:37.731Z,18.10
2018-08-07T00:19:06.245Z,18.00
2018-08-07T00:21:34.919Z,18.00
2018-08-07T00:24:03.453Z,17.90
2018-08-07T00:26:32.155Z,17.90
2018-08-07T00:29:00.661Z,17.90
2018-08-07T00:31:29.361Z,17.90
2018-08-07T00:33:57.886Z,17.90
2018-08-07T00:36:26.580Z,17.90
2018-08-07T00:38:55.124Z,17.80
2018-08-07T00:41:23.819Z,17.90
2018-08-07T00:46:20.480Z,17.80
2018-08-07T00:48:49.314Z,17.80
2018-08-07T00:51:17.857Z,17.80
2018-08-07T00:53:46.499Z,17.70
2018-08-07T00:56:15.028Z,17.70
2018-08-07T00:58:43.757Z,17.70
2018-08-07T01:01:12.316Z,17.60
2018-08-07T01:03:41.000Z,17.60
2018-08-07T01:06:09.504Z,17.70
2018-08-07T01:08:38.255Z,17.60
2018-08-07T01:13:35.408Z,17.60
2018-08-07T01:16:03.890Z,17.50
2018-08-07T01:18:32.739Z,17.40
2018-08-07T01:21:01.260Z,17.40
2018-08-07T01:23:29.939Z,17.50
2018-08-07T01:25:58.453Z,17.40
2018-08-07T01:28:27.147Z,17.30
2018-08-07T01:30:55.704Z,17.30
2018-08-07T01:33:24.390Z,17.40
2018-08-07T01:35:52.931Z,17.30
2018-08-07T01:38:21.589Z,17.30
2018-08-07T01:40:50.145Z,17.20
2018-08-07T01:43:18.700Z,17.20
2018-08-07T01:45:47.253Z,17.10
2018-08-07T01:48:15.955Z,17.20
2018-08-07T01:50:44.484Z,17.20
2018-08-07T01:53:13.188Z,17.10
2018-08-07T01:55:41.709Z,17.10
2018-08-07T01:58:10.403Z,17.20
2018-08-07T02:00:38.943Z,17.10
2018-08-07T02:03:07.672Z,17.10
2018-08-07T02:05:36.168Z,17.10
2018-08-07T02:10:33.072Z,17.10
2018-08-07T02:13:01.756Z,17.10
2018-08-07T02:15:30.288Z,17.10
2018-08-07T02:20:27.673Z,17.10
2018-08-07T02:22:56.414Z,17.10
2018-08-07T02:25:24.972Z,17.10
2018-08-07T02:27:53.652Z,17.10
2018-08-07T02:30:22.164Z,17.00
2018-08-07T02:32:50.807Z,17.00
2018-08-07T02:35:19.324Z,16.90
2018-08-07T02:37:48.370Z,16.90
2018-08-07T02:40:17.246Z,16.90
2018-08-07T02:42:46.102Z,16.90
2018-08-07T02:45:17.339Z,17.00
2018-08-07T02:47:46.567Z,16.80
2018-08-07T02:50:18.000Z,16.80
2018-08-07T02:52:46.800Z,16.80
2018-08-07T02:55:15.305Z,16.70
2018-08-07T02:57:44.656Z,16.70
2018-08-07T03:00:16.209Z,16.70
2018-08-07T03:02:45.278Z,16.80
2018-08-07T03:05:13.916Z,16.80
2018-08-07T03:07:42.619Z,16.80
2018-08-07T03:10:11.144Z,16.80
2018-08-07T03:12:40.039Z,16.70
2018-08-07T03:15:10.937Z,16.80
2018-08-07T03:17:39.626Z,16.70
2018-08-07T03:20:08.455Z,16.70
2018-08-07T03:25:06.390Z,16.60
2018-08-07T03:27:35.074Z,16.60
2018-08-07T03:30:04.013Z,16.60
2018-08-07T03:32:32.666Z,16.50
2018-08-07T03:35:01.168Z,16.60
2018-08-07T03:37:29.737Z,16.60
2018-08-07T03:39:58.281Z,16.60
2018-08-07T03:42:26.948Z,16.60
2018-08-07T03:44:55.431Z,16.60
2018-08-07T03:47:24.101Z,16.50
2018-08-07T03:49:52.653Z,16.50
2018-08-07T03:52:21.406Z,16.40
2018-08-07T03:54:49.990Z,16.30
2018-08-07T03:57:18.744Z,16.30
2018-08-07T03:59:47.260Z,16.30
2018-08-07T04:02:16.053Z,16.20
2018-08-07T04:04:44.550Z,16.20
2018-08-07T04:07:13.263Z,16.20
2018-08-07T04:09:41.813Z,16.20
2018-08-07T04:12:10.552Z,16.30
2018-08-07T04:14:39.043Z,16.30
2018-08-07T04:17:07.738Z,16.30
2018-08-07T04:22:04.622Z,16.40
2018-08-07T04:24:33.114Z,16.40
2018-08-07T04:27:01.834Z,16.40
2018-08-07T04:29:30.313Z,16.50
2018-08-07T04:31:58.958Z,16.60
2018-08-07T04:34:27.564Z,16.60
2018-08-07T04:36:56.088Z,16.70
2018-08-07T04:39:24.583Z,16.70
2018-08-07T04:41:53.320Z,16.70
2018-08-07T04:44:21.861Z,16.80
2018-08-07T04:46:50.531Z,16.80
2018-08-07T04:49:19.040Z,16.90
2018-08-07T04:51:47.725Z,17.00
2018-08-07T04:54:16.250Z,17.10
2018-08-07T04:56:44.943Z,17.20
2018-08-07T04:59:13.461Z,17.30
2018-08-07T05:01:42.235Z,17.30
2018-08-07T05:04:10.749Z,17.50
2018-08-07T05:06:39.434Z,17.60
2018-08-07T05:09:08.321Z,17.60
2018-08-07T05:11:37.036Z,17.80
2018-08-07T05:14:05.573Z,17.90
2018-08-07T05:16:34.255Z,18.00
2018-08-07T05:19:02.812Z,18.10
2018-08-07T05:21:31.514Z,18.10
2018-08-07T05:24:00.023Z,18.20
2018-08-07T05:26:28.904Z,18.40
2018-08-07T05:28:57.448Z,18.40
2018-08-07T05:31:26.119Z,18.60
2018-08-07T05:33:54.682Z,18.70
2018-08-07T05:36:23.386Z,18.70
2018-08-07T05:38:51.965Z,18.80
2018-08-07T05:41:20.651Z,18.90
2018-08-07T05:43:49.162Z,19.00
2018-08-07T05:46:17.860Z,19.10
2018-08-07T05:51:14.782Z,19.30
2018-08-07T05:53:43.370Z,19.40
2018-08-07T05:56:11.923Z,19.50
2018-08-07T05:58:40.680Z,19.50
2018-08-07T06:01:09.626Z,19.50
2018-08-07T06:03:38.387Z,19.50
2018-08-07T06:06:07.049Z,19.60
2018-08-07T06:08:35.699Z,19.70
2018-08-07T06:11:04.395Z,19.70
2018-08-07T06:13:33.101Z,19.80
2018-08-07T06:16:01.692Z,19.80
2018-08-07T06:18:30.451Z,20.00
2018-08-07T06:20:59.017Z,20.10
2018-08-07T06:23:27.737Z,20.10
2018-08-07T06:25:56.345Z,20.20
2018-08-07T06:28:25.978Z,20.30
2018-08-07T06:30:54.496Z,20.40
2018-08-07T06:33:23.245Z,20.30
2018-08-07T06:35:51.781Z,20.40
2018-08-07T06:38:20.444Z,20.50
2018-08-07T06:40:49.037Z,20.60
2018-08-07T06:43:17.725Z,20.60
2018-08-07T06:45:46.290Z,20.70
2018-08-07T06:48:15.035Z,20.80
2018-08-07T06:50:43.592Z,20.90
2018-08-07T06:53:12.265Z,20.90
2018-08-07T06:55:40.787Z,21.00
2018-08-07T06:58:09.447Z,21.10
2018-08-07T07:00:37.971Z,21.20
2018-08-07T07:03:06.800Z,21.30
2018-08-07T07:05:41.952Z,21.30
2018-08-07T07:08:10.680Z,21.40
2018-08-07T07:10:39.272Z,21.40
2018-08-07T07:13:08.002Z,21.50
2018-08-07T07:15:36.574Z,21.50
2018-08-07T07:20:33.699Z,21.70
2018-08-07T07:23:02.404Z,21.70
2018-08-07T07:25:30.977Z,21.70
2018-08-07T07:30:28.069Z,21.90
2018-08-07T07:32:56.874Z,21.90
2018-08-07T07:35:25.488Z,22.10
2018-08-07T07:37:54.296Z,22.10
2018-08-07T07:40:22.895Z,22.20
2018-08-07T07:42:51.634Z,22.20
2018-08-07T07:45:20.860Z,22.30
2018-08-07T07:47:49.603Z,22.40
2018-08-07T07:50:19.754Z,22.40
2018-08-07T07:52:48.596Z,22.50
2018-08-07T07:55:17.881Z,22.50
2018-08-07T07:57:46.469Z,22.60
2018-08-07T08:00:25.055Z,22.70
2018-08-07T08:02:53.986Z,22.70
2018-08-07T08:05:23.651Z,22.70
2018-08-07T08:07:52.605Z,22.80
2018-08-07T08:10:21.179Z,22.90
2018-08-07T08:12:49.896Z,22.90
2018-08-07T08:15:19.065Z,23.00
2018-08-07T08:20:21.504Z,23.10
2018-08-07T08:22:50.957Z,23.20
2018-08-07T08:25:19.697Z,23.30
2018-08-07T08:27:48.616Z,23.30
2018-08-07T08:30:17.626Z,23.40
2018-08-07T08:35:16.147Z,23.50
2018-08-07T08:37:45.389Z,23.50
2018-08-07T08:40:15.736Z,23.70
2018-08-07T08:42:44.692Z,23.80
2018-08-07T08:45:17.506Z,23.90
2018-08-07T08:47:47.427Z,24.00
2018-08-07T08:50:17.369Z,24.00
2018-08-07T08:52:46.226Z,24.10
2018-08-07T08:57:44.124Z,24.30
2018-08-07T09:00:15.731Z,24.30
2018-08-07T09:02:45.491Z,24.40
2018-08-07T09:05:14.513Z,24.40
2018-08-07T09:07:43.744Z,24.50
2018-08-07T09:10:21.589Z,24.50
2018-08-07T09:12:50.978Z,24.60
2018-08-07T09:15:19.565Z,24.70
2018-08-07T09:17:48.751Z,24.70
2018-08-07T09:20:23.078Z,24.90
2018-08-07T09:22:52.382Z,24.90
2018-08-07T09:25:22.127Z,24.90
2018-08-07T09:27:51.098Z,24.90
2018-08-07T09:30:22.330Z,25.00
2018-08-07T09:32:51.988Z,25.20
2018-08-07T09:35:21.452Z,25.20
2018-08-07T09:37:50.314Z,25.30
2018-08-07T09:40:20.097Z,25.30
2018-08-07T09:42:50.435Z,25.40
2018-08-07T09:45:21.982Z,25.50
2018-08-07T09:50:19.905Z,25.70
2018-08-07T09:52:49.250Z,25.70
2018-08-07T09:55:17.966Z,25.80
2018-08-07T09:57:46.751Z,25.90
2018-08-07T10:00:25.568Z,26.10
2018-08-07T10:02:58.094Z,26.00
2018-08-07T10:05:28.248Z,26.10
2018-08-07T10:07:56.926Z,26.20
2018-08-07T10:10:25.921Z,26.30
2018-08-07T10:12:54.742Z,26.50
2018-08-07T10:15:23.444Z,26.50
2018-08-07T10:17:52.301Z,26.70
2018-08-07T10:20:20.974Z,26.80
2018-08-07T10:22:49.771Z,27.00
2018-08-07T10:25:19.402Z,27.10
2018-08-07T10:27:48.847Z,27.20
2018-08-07T10:30:20.797Z,27.30
2018-08-07T10:32:50.415Z,27.40
2018-08-07T10:35:19.230Z,27.50
2018-08-07T10:37:48.443Z,27.70
2018-08-07T10:40:19.489Z,27.70
2018-08-07T10:42:48.311Z,27.70
2018-08-07T10:45:18.534Z,28.00
2018-08-07T10:47:48.083Z,28.10
2018-08-07T10:50:34.086Z,28.20
2018-08-07T10:53:02.892Z,28.50
2018-08-07T10:55:31.674Z,28.50
2018-08-07T10:58:01.048Z,28.60
2018-08-07T11:00:31.525Z,28.70
2018-08-07T11:03:00.969Z,28.80
2018-08-07T11:05:29.916Z,28.90
2018-08-07T11:07:58.791Z,29.10
2018-08-07T11:10:27.375Z,28.90
2018-08-07T11:12:56.555Z,29.10
2018-08-07T11:15:33.277Z,29.30
2018-08-07T11:18:02.616Z,29.40
2018-08-07T11:20:31.309Z,29.60
2018-08-07T11:23:01.151Z,29.40
2018-08-07T11:25:30.521Z,29.70
2018-08-07T11:27:59.603Z,29.60
2018-08-07T11:30:29.131Z,29.70
2018-08-07T11:32:59.373Z,29.90
2018-08-07T11:35:28.312Z,30.10
2018-08-07T11:37:58.419Z,30.10
2018-08-07T11:40:27.139Z,30.00
2018-08-07T11:42:56.595Z,29.90
2018-08-07T11:45:26.803Z,29.90
2018-08-07T11:47:55.522Z,30.20
2018-08-07T11:50:25.310Z,30.50
2018-08-07T11:52:54.063Z,30.60
2018-08-07T11:55:22.880Z,30.90
2018-08-07T11:57:52.574Z,30.60
2018-08-07T12:02:52.145Z,30.90
2018-08-07T12:05:20.724Z,31.10
2018-08-07T12:07:49.418Z,31.20
2018-08-07T12:10:18.887Z,31.00
2018-08-07T12:12:47.718Z,31.10
2018-08-07T12:15:18.734Z,31.10
2018-08-07T12:17:47.589Z,31.20
2018-08-07T12:20:16.292Z,31.30
2018-08-07T12:22:44.968Z,31.10
2018-08-07T12:25:14.702Z,31.40
2018-08-07T12:27:43.740Z,31.20
2018-08-07T12:30:25.107Z,31.40
2018-08-07T12:32:53.826Z,31.50
2018-08-07T12:35:22.383Z,31.60
2018-08-07T12:37:51.178Z,31.60
2018-08-07T12:40:21.993Z,31.70
2018-08-07T12:42:51.239Z,31.80
2018-08-07T12:45:19.946Z,31.90
2018-08-07T12:47:49.218Z,32.10
2018-08-07T12:50:18.381Z,32.10
2018-08-07T12:52:47.179Z,31.90
2018-08-07T12:55:18.387Z,32.20
2018-08-07T12:57:47.741Z,32.20
2018-08-07T13:00:18.021Z,32.20
2018-08-07T13:02:46.804Z,32.00
2018-08-07T13:05:15.397Z,32.30
2018-08-07T13:07:44.464Z,32.50
2018-08-07T13:10:14.659Z,32.60
2018-08-07T13:12:44.336Z,32.60
2018-08-07T13:15:14.965Z,32.30
2018-08-07T13:20:13.034Z,32.20
2018-08-07T13:22:43.091Z,32.30
2018-08-07T13:25:13.217Z,32.30
2018-08-07T13:27:42.116Z,32.30
2018-08-07T13:32:41.709Z,32.30
2018-08-07T13:37:39.633Z,32.30
2018-08-07T13:40:12.869Z,32.10
2018-08-07T13:42:42.092Z,31.90
2018-08-07T13:45:14.637Z,31.80
2018-08-07T13:47:43.745Z,31.50
2018-08-07T13:50:17.302Z,31.60
2018-08-07T13:52:46.842Z,31.70
2018-08-07T13:55:16.649Z,31.50
2018-08-07T13:57:45.869Z,31.50
2018-08-07T14:00:22.946Z,31.20
2018-08-07T14:02:52.239Z,31.30
2018-08-07T14:05:21.459Z,31.20
2018-08-07T14:07:51.661Z,31.00
2018-08-07T14:10:21.339Z,30.80
2018-08-07T14:12:50.045Z,30.70
2018-08-07T14:15:19.535Z,30.70
2018-08-07T14:17:48.795Z,30.40
2018-08-07T14:20:18.327Z,30.50
2018-08-07T14:22:48.883Z,30.50
2018-08-07T14:25:21.804Z,30.40
2018-08-07T14:27:51.138Z,30.30
2018-08-07T14:30:28.365Z,30.30
2018-08-07T14:32:57.751Z,30.20
2018-08-07T14:35:26.549Z,30.10
2018-08-07T14:37:55.373Z,30.00
2018-08-07T14:40:25.605Z,29.80
2018-08-07T14:42:54.750Z,29.90
2018-08-07T14:45:25.912Z,29.80
2018-08-07T14:47:55.156Z,29.80
2018-08-07T14:50:25.622Z,29.80
2018-08-07T14:55:23.071Z,29.70
2018-08-07T14:57:51.926Z,29.70
2018-08-07T15:00:29.661Z,29.70
2018-08-07T15:02:58.682Z,29.60
2018-08-07T15:05:27.255Z,29.60
2018-08-07T15:07:56.082Z,29.60
2018-08-07T15:10:25.947Z,29.60
2018-08-07T15:12:54.660Z,29.60
2018-08-07T15:15:25.843Z,29.50
2018-08-07T15:17:54.729Z,29.50
2018-08-07T15:20:25.189Z,29.50
2018-08-07T15:22:54.605Z,29.40
2018-08-07T15:25:23.610Z,29.50
2018-08-07T15:27:52.422Z,29.50
2018-08-07T15:30:24.780Z,29.50
2018-08-07T15:32:53.885Z,29.40
2018-08-07T15:35:24.308Z,29.40
2018-08-07T15:37:52.975Z,29.40
2018-08-07T15:40:22.094Z,29.30
2018-08-07T15:42:50.949Z,29.20
2018-08-07T15:45:21.999Z,29.20
2018-08-07T15:47:50.956Z,29.20
2018-08-07T15:50:26.138Z,29.20
2018-08-07T15:52:55.899Z,29.20
2018-08-07T15:55:25.951Z,29.20
2018-08-07T15:57:54.711Z,29.10
2018-08-07T16:00:31.283Z,29.10
2018-08-07T16:03:01.753Z,29.10
2018-08-07T16:05:30.434Z,29.00
2018-08-07T16:10:27.578Z,28.90
2018-08-07T16:12:56.324Z,29.00
2018-08-07T16:15:24.934Z,29.00
2018-08-07T16:17:54.191Z,28.90
2018-08-07T16:20:23.502Z,28.80
2018-08-07T16:22:52.295Z,28.90
2018-08-07T16:27:50.494Z,28.60
2018-08-07T16:30:22.567Z,28.40
2018-08-07T16:32:51.260Z,28.40
2018-08-07T16:35:19.850Z,28.20
2018-08-07T16:37:48.954Z,28.30
2018-08-07T16:40:18.876Z,28.20
2018-08-07T16:42:48.277Z,28.30
2018-08-07T16:45:18.178Z,28.20
2018-08-07T16:47:47.068Z,28.20
2018-08-07T16:50:18.683Z,28.20
2018-08-07T16:55:15.673Z,27.90
2018-08-07T16:57:44.386Z,27.80
2018-08-07T17:00:13.404Z,27.80
2018-08-07T17:02:42.158Z,27.70
2018-08-07T17:05:13.292Z,27.70
2018-08-07T17:07:42.344Z,27.60
2018-08-07T17:10:15.644Z,27.70
2018-08-07T17:12:44.365Z,27.60
2018-08-07T17:15:13.046Z,27.40
2018-08-07T17:17:42.556Z,27.40
2018-08-07T17:20:12.788Z,27.20
2018-08-07T17:22:42.365Z,27.00
2018-08-07T17:25:13.296Z,26.90
2018-08-07T17:27:42.459Z,26.90
2018-08-07T17:30:14.141Z,26.80
2018-08-07T17:32:43.084Z,26.70
2018-08-07T17:35:17.333Z,26.60
2018-08-07T17:37:46.303Z,26.50
2018-08-07T17:40:16.163Z,26.30
2018-08-07T17:42:44.989Z,26.20
2018-08-07T17:45:13.784Z,26.10
2018-08-07T17:47:42.541Z,26.00
2018-08-07T17:52:40.852Z,26.00
2018-08-07T17:55:10.179Z,26.00
2018-08-07T17:57:39.358Z,25.90
2018-08-07T18:00:17.634Z,25.80
2018-08-07T18:02:46.852Z,25.70
2018-08-07T18:05:15.467Z,25.60
2018-08-07T18:07:45.729Z,25.50
2018-08-07T18:10:15.796Z,25.50
2018-08-07T18:12:44.595Z,25.40
2018-08-07T18:15:14.525Z,25.30
2018-08-07T18:17:43.866Z,25.20
2018-08-07T18:20:15.004Z,25.10
2018-08-07T18:22:43.995Z,25.00
2018-08-07T18:25:12.631Z,24.90
2018-08-07T18:27:41.397Z,24.90
2018-08-07T18:30:13.497Z,24.80
2018-08-07T18:32:42.775Z,24.60
2018-08-07T18:35:20.177Z,24.60
2018-08-07T18:37:48.993Z,24.50
2018-08-07T18:40:17.816Z,24.40
2018-08-07T18:42:46.668Z,24.40
2018-08-07T18:45:15.441Z,24.30
2018-08-07T18:47:44.847Z,24.10
2018-08-07T18:50:16.942Z,24.10
2018-08-07T18:52:45.972Z,24.10
2018-08-07T18:55:15.102Z,24.00
2018-08-07T18:57:45.259Z,23.90
2018-08-07T19:00:17.220Z,23.90
2018-08-07T19:02:46.055Z,23.80
2018-08-07T19:05:16.063Z,23.70
2018-08-07T19:07:44.965Z,23.70
2018-08-07T19:10:13.937Z,23.50
2018-08-07T19:12:43.335Z,23.50
2018-08-07T19:17:41.533Z,23.40
2018-08-07T19:20:12.145Z,23.50
2018-08-07T19:22:40.851Z,23.50
2018-08-07T19:25:10.459Z,23.50
2018-08-07T19:27:39.134Z,23.50
2018-08-07T19:30:09.550Z,23.50
2018-08-07T19:32:38.584Z,23.50
2018-08-07T19:35:07.904Z,23.40
2018-08-07T19:37:36.800Z,23.40
2018-08-07T19:42:34.680Z,23.20
2018-08-07T19:45:03.321Z,23.20
2018-08-07T19:47:32.088Z,23.10
2018-08-07T19:50:00.770Z,23.00
2018-08-07T19:52:29.547Z,23.00
2018-08-07T19:54:58.090Z,22.90
2018-08-07T19:57:26.803Z,23.00
2018-08-07T19:59:55.480Z,22.90
2018-08-07T20:02:24.294Z,23.00
2018-08-07T20:04:52.827Z,22.80
2018-08-07T20:07:21.558Z,22.80
2018-08-07T20:09:50.154Z,22.70
2018-08-07T20:12:18.915Z,22.80
2018-08-07T20:14:47.594Z,22.80
2018-08-07T20:17:18.624Z,22.80
2018-08-07T20:19:47.279Z,22.60
2018-08-07T20:22:16.980Z,22.50
2018-08-07T20:24:45.925Z,22.50
2018-08-07T20:27:14.795Z,22.50
2018-08-07T20:32:11.656Z,22.40
2018-08-07T20:34:40.848Z,22.40
2018-08-07T20:37:09.531Z,22.30
2018-08-07T20:39:38.311Z,22.30
2018-08-07T20:42:06.984Z,22.20
2018-08-07T20:44:35.818Z,22.10
2018-08-07T20:47:04.550Z,22.10
2018-08-07T20:49:33.270Z,22.10
2018-08-07T20:52:02.445Z,22.00
2018-08-07T20:54:31.430Z,22.00
2018-08-07T20:57:00.059Z,22.10
2018-08-07T20:59:28.856Z,22.00
2018-08-07T21:01:57.606Z,22.00
2018-08-07T21:04:27.134Z,22.00
2018-08-07T21:06:55.739Z,21.90
2018-08-07T21:09:25.558Z,21.90
2018-08-07T21:11:54.242Z,22.00
2018-08-07T21:14:22.978Z,21.90
2018-08-07T21:16:51.960Z,21.80
2018-08-07T21:19:20.817Z,21.80
2018-08-07T21:21:49.312Z,21.80
2018-08-07T21:24:18.719Z,21.90
2018-08-07T21:26:47.427Z,21.80
2018-08-07T21:29:16.250Z,21.80
2018-08-07T21:31:44.871Z,21.80
2018-08-07T21:36:41.618Z,21.70
2018-08-07T21:39:11.006Z,21.60
2018-08-07T21:41:39.613Z,21.50
2018-08-07T21:44:08.595Z,21.60
2018-08-07T21:46:37.532Z,21.50
2018-08-07T21:49:06.811Z,21.40
2018-08-07T21:51:35.845Z,21.40
2018-08-07T21:54:04.883Z,21.30
2018-08-07T21:56:33.461Z,21.30
2018-08-07T21:59:02.341Z,21.30
2018-08-07T22:01:30.819Z,21.30
2018-08-07T22:03:59.567Z,21.30
2018-08-07T22:06:28.083Z,21.30
2018-08-07T22:08:56.678Z,21.20
2018-08-07T22:11:25.225Z,21.20
2018-08-07T22:13:54.017Z,21.20
2018-08-07T22:16:22.545Z,21.20
2018-08-07T22:18:51.233Z,21.20
2018-08-07T22:21:19.754Z,21.10
2018-08-07T22:23:48.456Z,21.10
2018-08-07T22:26:16.993Z,21.00
2018-08-07T22:31:14.072Z,20.90
2018-08-07T22:33:42.862Z,20.80
2018-08-07T22:36:11.485Z,20.80
2018-08-07T22:38:40.261Z,20.80
2018-08-07T22:41:08.809Z,20.90
2018-08-07T22:46:05.921Z,20.90
2018-08-07T22:48:34.632Z,20.80
2018-08-07T22:53:31.606Z,20.80
2018-08-07T22:56:00.192Z,20.80
2018-08-07T22:58:28.822Z,20.70
2018-08-07T23:00:57.415Z,20.70
2018-08-07T23:03:26.187Z,20.70
2018-08-07T23:05:54.731Z,20.70
2018-08-07T23:08:23.452Z,20.60
2018-08-07T23:10:52.071Z,20.50
2018-08-07T23:15:49.214Z,20.50
2018-08-07T23:18:17.961Z,20.50
2018-08-07T23:20:46.495Z,20.40
2018-08-07T23:25:43.440Z,20.30
2018-08-07T23:28:12.163Z,20.30
2018-08-07T23:30:40.692Z,20.40
2018-08-07T23:33:09.604Z,20.30
2018-08-07T23:35:38.201Z,20.20
2018-08-07T23:38:07.063Z,20.20
2018-08-07T23:40:35.623Z,20.20
2018-08-07T23:43:04.421Z,20.20
2018-08-07T23:45:33.048Z,20.20
2018-08-07T23:48:01.798Z,20.00
2018-08-07T23:50:30.392Z,20.00
2018-08-07T23:52:59.091Z,20.00
2018-08-07T23:55:27.652Z,20.00
2018-08-07T23:57:56.384Z,20.00
